sensor_id;sensor_type;location;lat;lon;timestamp;P1;durP1;ratioP1;P2;durP2;ratioP2
56297;SDS011;42208;6.376;-10.782;2022-08-20T00:00:45;30.13;;;13.57;;
56297;SDS011;42208;6.376;-10.782;2022-08-20T00:05:56;30.58;;;12.80;;
56297;SDS011;42208;6.376;-10.782;2022-08-20T00:08:28;27.40;;;13.48;;
56297;SDS011;42208;6.376;-10.782;2022-08-20T00:10:57;25.85;;;13.40;;
56297;SDS011;42208;6.376;-10.782;2022-08-20T00:13:31;25.35;;;13.70;;
56297;SDS011;42208;6.376;-10.782;2022-08-20T00:16:09;40.45;;;14.60;;
56297;SDS011;42208;6.376;-10.782;2022-08-20T00:18:40;22.08;;;11.95;;
56297;SDS011;42208;6.376;-10.782;2022-08-20T00:21:13;23.23;;;13.32;;
56297;SDS011;42208;6.376;-10.782;2022-08-20T00:23:46;28.33;;;14.90;;
56297;SDS011;42208;6.376;-10.782;2022-08-20T00:26:16;26.95;;;14.48;;
56297;SDS011;42208;6.376;-10.782;2022-08-20T00:28:45;37.38;;;16.67;;
56297;SDS011;42208;6.376;-10.782;2022-08-20T00:31:15;30.33;;;16.20;;
56297;SDS011;42208;6.376;-10.782;2022-08-20T00:33:46;40.22;;;14.18;;
56297;SDS011;42208;6.376;-10.782;2022-08-20T00:36:15;43.10;;;15.30;;
56297;SDS011;42208;6.376;-10.782;2022-08-20T00:38:45;36.65;;;16.38;;
56297;SDS011;42208;6.376;-10.782;2022-08-20T00:41:23;38.13;;;16.20;;
56297;SDS011;42208;6.376;-10.782;2022-08-20T00:46:46;39.97;;;16.83;;
56297;SDS011;42208;6.376;-10.782;2022-08-20T00:49:22;36.33;;;13.73;;
56297;SDS011;42208;6.376;-10.782;2022-08-20T00:54:38;30.73;;;14.57;;
56297;SDS011;42208;6.376;-10.782;2022-08-20T01:00:11;34.08;;;15.15;;
56297;SDS011;42208;6.376;-10.782;2022-08-20T01:02:42;36.28;;;14.55;;
56297;SDS011;42208;6.376;-10.782;2022-08-20T01:05:11;37.25;;;14.85;;
56297;SDS011;42208;6.376;-10.782;2022-08-20T01:07:39;75.25;;;43.38;;
56297;SDS011;42208;6.376;-10.782;2022-08-20T01:10:13;91.85;;;48.35;;
56297;SDS011;42208;6.376;-10.782;2022-08-20T01:12:45;51.55;;;24.60;;
56297;SDS011;42208;6.376;-10.782;2022-08-20T01:15:26;39.78;;;19.50;;
56297;SDS011;42208;6.376;-10.782;2022-08-20T01:17:57;39.35;;;19.08;;
56297;SDS011;42208;6.376;-10.782;2022-08-20T01:20:35;41.08;;;20.20;;
56297;SDS011;42208;6.376;-10.782;2022-08-20T01:25:47;40.65;;;18.38;;
56297;SDS011;42208;6.376;-10.782;2022-08-20T01:28:17;35.58;;;17.15;;
56297;SDS011;42208;6.376;-10.782;2022-08-20T01:30:50;34.22;;;17.42;;
56297;SDS011;42208;6.376;-10.782;2022-08-20T01:33:20;37.33;;;22.48;;
56297;SDS011;42208;6.376;-10.782;2022-08-20T01:35:50;47.75;;;27.08;;
56297;SDS011;42208;6.376;-10.782;2022-08-20T01:38:19;50.95;;;31.75;;
56297;SDS011;42208;6.376;-10.782;2022-08-20T01:43:23;33.75;;;15.32;;
56297;SDS011;42208;6.376;-10.782;2022-08-20T01:45:52;32.85;;;20.55;;
56297;SDS011;42208;6.376;-10.782;2022-08-20T01:48:21;24.48;;;14.35;;
56297;SDS011;42208;6.376;-10.782;2022-08-20T01:50:52;27.77;;;13.77;;
56297;SDS011;42208;6.376;-10.782;2022-08-20T01:53:29;34.60;;;18.58;;
56297;SDS011;42208;6.376;-10.782;2022-08-20T01:56:01;35.53;;;17.83;;
56297;SDS011;42208;6.376;-10.782;2022-08-20T01:58:32;52.78;;;32.53;;
56297;SDS011;42208;6.376;-10.782;2022-08-20T02:01:03;42.85;;;23.35;;
56297;SDS011;42208;6.376;-10.782;2022-08-20T02:03:39;47.03;;;27.63;;
56297;SDS011;42208;6.376;-10.782;2022-08-20T02:06:10;47.17;;;23.40;;
56297;SDS011;42208;6.376;-10.782;2022-08-20T02:08:42;31.38;;;15.40;;
56297;SDS011;42208;6.376;-10.782;2022-08-20T02:11:12;62.95;;;31.38;;
56297;SDS011;42208;6.376;-10.782;2022-08-20T02:13:40;33.90;;;17.75;;
56297;SDS011;42208;6.376;-10.782;2022-08-20T02:16:08;64.10;;;36.00;;
56297;SDS011;42208;6.376;-10.782;2022-08-20T02:18:37;35.30;;;22.15;;
56297;SDS011;42208;6.376;-10.782;2022-08-20T02:21:05;41.97;;;24.88;;
56297;SDS011;42208;6.376;-10.782;2022-08-20T02:23:34;43.30;;;21.67;;
56297;SDS011;42208;6.376;-10.782;2022-08-20T02:26:02;29.10;;;13.98;;
56297;SDS011;42208;6.376;-10.782;2022-08-20T02:28:30;33.50;;;13.73;;
56297;SDS011;42208;6.376;-10.782;2022-08-20T02:30:59;33.25;;;15.10;;
56297;SDS011;42208;6.376;-10.782;2022-08-20T02:33:27;35.45;;;18.45;;
56297;SDS011;42208;6.376;-10.782;2022-08-20T02:35:55;29.52;;;18.00;;
56297;SDS011;42208;6.376;-10.782;2022-08-20T02:38:24;32.40;;;17.70;;
56297;SDS011;42208;6.376;-10.782;2022-08-20T02:40:53;31.85;;;15.13;;
56297;SDS011;42208;6.376;-10.782;2022-08-20T02:43:21;24.95;;;15.75;;
56297;SDS011;42208;6.376;-10.782;2022-08-20T02:45:49;36.53;;;14.80;;
56297;SDS011;42208;6.376;-10.782;2022-08-20T02:48:19;37.08;;;18.48;;
56297;SDS011;42208;6.376;-10.782;2022-08-20T02:50:52;32.40;;;14.90;;
56297;SDS011;42208;6.376;-10.782;2022-08-20T02:53:26;26.95;;;12.48;;
56297;SDS011;42208;6.376;-10.782;2022-08-20T02:55:58;21.48;;;12.27;;
56297;SDS011;42208;6.376;-10.782;2022-08-20T02:58:26;26.90;;;13.02;;
56297;SDS011;42208;6.376;-10.782;2022-08-20T03:00:55;25.85;;;12.32;;
56297;SDS011;42208;6.376;-10.782;2022-08-20T03:03:23;29.27;;;14.73;;
56297;SDS011;42208;6.376;-10.782;2022-08-20T03:05:54;27.55;;;15.30;;
56297;SDS011;42208;6.376;-10.782;2022-08-20T03:11:32;28.23;;;14.23;;
56297;SDS011;42208;6.376;-10.782;2022-08-20T03:14:01;28.58;;;12.88;;
56297;SDS011;42208;6.376;-10.782;2022-08-20T03:16:29;27.50;;;13.65;;
56297;SDS011;42208;6.376;-10.782;2022-08-20T03:18:58;32.53;;;15.52;;
56297;SDS011;42208;6.376;-10.782;2022-08-20T03:21:26;31.40;;;12.90;;
56297;SDS011;42208;6.376;-10.782;2022-08-20T03:23:54;28.15;;;12.57;;
56297;SDS011;42208;6.376;-10.782;2022-08-20T03:26:22;42.42;;;13.00;;
56297;SDS011;42208;6.376;-10.782;2022-08-20T03:28:51;25.20;;;13.20;;
56297;SDS011;42208;6.376;-10.782;2022-08-20T03:31:19;27.33;;;12.43;;
56297;SDS011;42208;6.376;-10.782;2022-08-20T03:33:47;23.45;;;13.25;;
56297;SDS011;42208;6.376;-10.782;2022-08-20T03:36:20;33.78;;;12.98;;
56297;SDS011;42208;6.376;-10.782;2022-08-20T03:38:56;21.20;;;11.27;;
56297;SDS011;42208;6.376;-10.782;2022-08-20T03:41:25;30.25;;;12.35;;
56297;SDS011;42208;6.376;-10.782;2022-08-20T03:43:54;31.60;;;12.88;;
56297;SDS011;42208;6.376;-10.782;2022-08-20T03:46:23;35.33;;;12.68;;
56297;SDS011;42208;6.376;-10.782;2022-08-20T03:48:52;22.08;;;12.00;;
56297;SDS011;42208;6.376;-10.782;2022-08-20T03:51:27;25.65;;;11.20;;
56297;SDS011;42208;6.376;-10.782;2022-08-20T03:53:56;21.92;;;11.75;;
56297;SDS011;42208;6.376;-10.782;2022-08-20T03:56:25;27.25;;;12.60;;
56297;SDS011;42208;6.376;-10.782;2022-08-20T03:58:56;33.22;;;12.57;;
56297;SDS011;42208;6.376;-10.782;2022-08-20T04:01:24;28.38;;;13.40;;
56297;SDS011;42208;6.376;-10.782;2022-08-20T04:04:12;20.38;;;10.88;;
56297;SDS011;42208;6.376;-10.782;2022-08-20T04:06:41;23.40;;;11.48;;
56297;SDS011;42208;6.376;-10.782;2022-08-20T04:09:10;22.08;;;11.23;;
56297;SDS011;42208;6.376;-10.782;2022-08-20T04:11:42;24.13;;;10.85;;
56297;SDS011;42208;6.376;-10.782;2022-08-20T04:14:10;23.55;;;11.65;;
56297;SDS011;42208;6.376;-10.782;2022-08-20T04:16:45;32.70;;;12.38;;
56297;SDS011;42208;6.376;-10.782;2022-08-20T04:19:15;24.95;;;11.18;;
56297;SDS011;42208;6.376;-10.782;2022-08-20T04:21:43;26.67;;;10.80;;
56297;SDS011;42208;6.376;-10.782;2022-08-20T04:24:11;21.55;;;11.93;;
56297;SDS011;42208;6.376;-10.782;2022-08-20T04:26:57;29.75;;;11.75;;
56297;SDS011;42208;6.376;-10.782;2022-08-20T04:29:27;28.25;;;12.40;;
56297;SDS011;42208;6.376;-10.782;2022-08-20T04:31:58;27.60;;;11.43;;
56297;SDS011;42208;6.376;-10.782;2022-08-20T04:34:32;24.15;;;11.25;;
56297;SDS011;42208;6.376;-10.782;2022-08-20T04:37:01;25.83;;;11.70;;
56297;SDS011;42208;6.376;-10.782;2022-08-20T04:39:29;26.88;;;12.75;;
56297;SDS011;42208;6.376;-10.782;2022-08-20T04:41:58;28.02;;;11.63;;
56297;SDS011;42208;6.376;-10.782;2022-08-20T04:44:26;25.73;;;10.90;;
56297;SDS011;42208;6.376;-10.782;2022-08-20T04:46:55;29.70;;;11.60;;
56297;SDS011;42208;6.376;-10.782;2022-08-20T04:49:23;27.02;;;11.48;;
56297;SDS011;42208;6.376;-10.782;2022-08-20T04:51:51;29.55;;;11.40;;
56297;SDS011;42208;6.376;-10.782;2022-08-20T04:54:20;20.02;;;10.43;;
56297;SDS011;42208;6.376;-10.782;2022-08-20T04:56:49;35.20;;;14.63;;
56297;SDS011;42208;6.376;-10.782;2022-08-20T04:59:17;35.85;;;18.75;;
56297;SDS011;42208;6.376;-10.782;2022-08-20T05:01:46;52.10;;;23.95;;
56297;SDS011;42208;6.376;-10.782;2022-08-20T05:04:14;51.33;;;21.30;;
56297;SDS011;42208;6.376;-10.782;2022-08-20T05:06:42;39.45;;;21.27;;
56297;SDS011;42208;6.376;-10.782;2022-08-20T05:09:10;41.03;;;20.08;;
56297;SDS011;42208;6.376;-10.782;2022-08-20T05:11:39;31.25;;;14.85;;
56297;SDS011;42208;6.376;-10.782;2022-08-20T05:14:07;28.63;;;14.68;;
56297;SDS011;42208;6.376;-10.782;2022-08-20T05:16:36;27.67;;;14.20;;
56297;SDS011;42208;6.376;-10.782;2022-08-20T05:19:09;28.83;;;15.25;;
56297;SDS011;42208;6.376;-10.782;2022-08-20T05:21:39;28.80;;;13.48;;
56297;SDS011;42208;6.376;-10.782;2022-08-20T05:24:07;24.20;;;13.15;;
56297;SDS011;42208;6.376;-10.782;2022-08-20T05:26:36;34.13;;;12.95;;
56297;SDS011;42208;6.376;-10.782;2022-08-20T05:29:04;29.52;;;13.43;;
56297;SDS011;42208;6.376;-10.782;2022-08-20T05:31:32;21.83;;;12.48;;
56297;SDS011;42208;6.376;-10.782;2022-08-20T05:34:04;27.50;;;12.85;;
56297;SDS011;42208;6.376;-10.782;2022-08-20T05:36:38;30.50;;;13.93;;
56297;SDS011;42208;6.376;-10.782;2022-08-20T05:39:15;31.42;;;14.32;;
56297;SDS011;42208;6.376;-10.782;2022-08-20T05:41:45;22.63;;;12.68;;
56297;SDS011;42208;6.376;-10.782;2022-08-20T05:44:13;28.50;;;11.75;;
56297;SDS011;42208;6.376;-10.782;2022-08-20T05:46:43;21.40;;;11.65;;
56297;SDS011;42208;6.376;-10.782;2022-08-20T05:49:13;23.27;;;11.52;;
56297;SDS011;42208;6.376;-10.782;2022-08-20T05:54:13;24.38;;;13.20;;
56297;SDS011;42208;6.376;-10.782;2022-08-20T05:56:41;28.67;;;12.55;;
56297;SDS011;42208;6.376;-10.782;2022-08-20T05:59:10;20.95;;;13.43;;
56297;SDS011;42208;6.376;-10.782;2022-08-20T06:01:38;38.75;;;18.02;;
56297;SDS011;42208;6.376;-10.782;2022-08-20T06:04:08;30.25;;;18.98;;
56297;SDS011;42208;6.376;-10.782;2022-08-20T06:06:37;34.25;;;13.52;;
56297;SDS011;42208;6.376;-10.782;2022-08-20T06:09:16;25.73;;;11.65;;
56297;SDS011;42208;6.376;-10.782;2022-08-20T06:11:59;21.63;;;11.38;;
56297;SDS011;42208;6.376;-10.782;2022-08-20T06:14:29;27.00;;;12.27;;
56297;SDS011;42208;6.376;-10.782;2022-08-20T06:17:05;30.58;;;14.63;;
56297;SDS011;42208;6.376;-10.782;2022-08-20T06:22:10;23.25;;;11.45;;
56297;SDS011;42208;6.376;-10.782;2022-08-20T06:24:51;27.02;;;12.15;;
56297;SDS011;42208;6.376;-10.782;2022-08-20T06:27:20;26.05;;;13.07;;
56297;SDS011;42208;6.376;-10.782;2022-08-20T06:29:49;26.23;;;12.52;;
56297;SDS011;42208;6.376;-10.782;2022-08-20T06:32:18;33.78;;;13.57;;
56297;SDS011;42208;6.376;-10.782;2022-08-20T06:35:01;23.05;;;11.50;;
56297;SDS011;42208;6.376;-10.782;2022-08-20T06:37:33;25.13;;;12.63;;
56297;SDS011;42208;6.376;-10.782;2022-08-20T06:40:03;23.38;;;11.65;;
56297;SDS011;42208;6.376;-10.782;2022-08-20T06:42:37;25.25;;;11.25;;
56297;SDS011;42208;6.376;-10.782;2022-08-20T06:45:10;30.33;;;12.55;;
56297;SDS011;42208;6.376;-10.782;2022-08-20T06:47:41;27.15;;;12.02;;
56297;SDS011;42208;6.376;-10.782;2022-08-20T06:50:18;26.88;;;13.40;;
56297;SDS011;42208;6.376;-10.782;2022-08-20T06:52:48;25.27;;;13.63;;
56297;SDS011;42208;6.376;-10.782;2022-08-20T06:55:19;39.53;;;18.20;;
56297;SDS011;42208;6.376;-10.782;2022-08-20T06:57:54;31.30;;;14.77;;
56297;SDS011;42208;6.376;-10.782;2022-08-20T07:00:24;33.00;;;14.50;;
56297;SDS011;42208;6.376;-10.782;2022-08-20T07:02:53;32.15;;;14.38;;
56297;SDS011;42208;6.376;-10.782;2022-08-20T07:05:22;32.60;;;15.02;;
56297;SDS011;42208;6.376;-10.782;2022-08-20T07:07:50;31.27;;;13.30;;
56297;SDS011;42208;6.376;-10.782;2022-08-20T07:10:19;31.42;;;11.60;;
56297;SDS011;42208;6.376;-10.782;2022-08-20T07:12:49;29.10;;;13.55;;
56297;SDS011;42208;6.376;-10.782;2022-08-20T07:15:19;36.47;;;15.55;;
56297;SDS011;42208;6.376;-10.782;2022-08-20T07:17:53;28.33;;;15.18;;
56297;SDS011;42208;6.376;-10.782;2022-08-20T07:20:27;40.08;;;14.32;;
56297;SDS011;42208;6.376;-10.782;2022-08-20T07:22:57;30.75;;;13.98;;
56297;SDS011;42208;6.376;-10.782;2022-08-20T07:25:25;30.33;;;14.57;;
56297;SDS011;42208;6.376;-10.782;2022-08-20T07:28:04;33.00;;;17.75;;
56297;SDS011;42208;6.376;-10.782;2022-08-20T07:30:34;34.88;;;15.52;;
56297;SDS011;42208;6.376;-10.782;2022-08-20T07:33:23;28.50;;;13.68;;
56297;SDS011;42208;6.376;-10.782;2022-08-20T07:35:57;36.20;;;13.77;;
56297;SDS011;42208;6.376;-10.782;2022-08-20T07:38:27;24.92;;;11.75;;
56297;SDS011;42208;6.376;-10.782;2022-08-20T07:40:58;23.08;;;11.57;;
56297;SDS011;42208;6.376;-10.782;2022-08-20T07:43:36;30.52;;;13.07;;
56297;SDS011;42208;6.376;-10.782;2022-08-20T07:46:05;29.40;;;11.55;;
56297;SDS011;42208;6.376;-10.782;2022-08-20T07:48:36;24.52;;;11.10;;
56297;SDS011;42208;6.376;-10.782;2022-08-20T07:51:06;28.52;;;12.77;;
56297;SDS011;42208;6.376;-10.782;2022-08-20T07:53:36;31.80;;;13.65;;
56297;SDS011;42208;6.376;-10.782;2022-08-20T07:56:09;32.80;;;13.65;;
56297;SDS011;42208;6.376;-10.782;2022-08-20T07:58:43;27.67;;;12.05;;
56297;SDS011;42208;6.376;-10.782;2022-08-20T08:01:14;31.48;;;12.70;;
56297;SDS011;42208;6.376;-10.782;2022-08-20T08:03:55;24.25;;;11.70;;
56297;SDS011;42208;6.376;-10.782;2022-08-20T08:06:25;26.30;;;11.63;;
56297;SDS011;42208;6.376;-10.782;2022-08-20T08:09:03;24.73;;;13.13;;
56297;SDS011;42208;6.376;-10.782;2022-08-20T08:11:35;27.10;;;12.90;;
56297;SDS011;42208;6.376;-10.782;2022-08-20T08:14:06;29.90;;;12.13;;
56297;SDS011;42208;6.376;-10.782;2022-08-20T08:16:36;24.90;;;12.40;;
56297;SDS011;42208;6.376;-10.782;2022-08-20T08:19:05;26.20;;;12.35;;
56297;SDS011;42208;6.376;-10.782;2022-08-20T08:21:36;34.47;;;14.38;;
56297;SDS011;42208;6.376;-10.782;2022-08-20T08:24:04;29.42;;;13.70;;
56297;SDS011;42208;6.376;-10.782;2022-08-20T08:26:33;30.67;;;12.25;;
56297;SDS011;42208;6.376;-10.782;2022-08-20T08:29:01;27.58;;;13.00;;
56297;SDS011;42208;6.376;-10.782;2022-08-20T08:31:30;22.42;;;11.25;;
56297;SDS011;42208;6.376;-10.782;2022-08-20T08:33:58;29.50;;;12.27;;
56297;SDS011;42208;6.376;-10.782;2022-08-20T08:36:27;24.08;;;11.13;;
56297;SDS011;42208;6.376;-10.782;2022-08-20T08:38:55;30.92;;;13.90;;
56297;SDS011;42208;6.376;-10.782;2022-08-20T08:44:02;30.60;;;12.15;;
56297;SDS011;42208;6.376;-10.782;2022-08-20T08:46:45;25.48;;;10.95;;
56297;SDS011;42208;6.376;-10.782;2022-08-20T08:49:18;29.08;;;11.02;;
56297;SDS011;42208;6.376;-10.782;2022-08-20T08:52:02;22.17;;;11.60;;
56297;SDS011;42208;6.376;-10.782;2022-08-20T08:54:46;26.27;;;12.55;;
56297;SDS011;42208;6.376;-10.782;2022-08-20T08:57:26;26.75;;;10.98;;
56297;SDS011;42208;6.376;-10.782;2022-08-20T08:59:55;24.00;;;10.93;;
56297;SDS011;42208;6.376;-10.782;2022-08-20T09:02:31;19.17;;;10.20;;
56297;SDS011;42208;6.376;-10.782;2022-08-20T09:05:02;22.85;;;10.20;;
56297;SDS011;42208;6.376;-10.782;2022-08-20T09:07:38;25.77;;;11.77;;
56297;SDS011;42208;6.376;-10.782;2022-08-20T09:10:08;29.88;;;13.30;;
56297;SDS011;42208;6.376;-10.782;2022-08-20T09:12:36;23.40;;;10.73;;
56297;SDS011;42208;6.376;-10.782;2022-08-20T09:15:06;29.17;;;12.35;;
56297;SDS011;42208;6.376;-10.782;2022-08-20T09:17:35;26.88;;;11.27;;
56297;SDS011;42208;6.376;-10.782;2022-08-20T09:20:03;22.45;;;12.73;;
56297;SDS011;42208;6.376;-10.782;2022-08-20T09:22:32;29.05;;;11.65;;
56297;SDS011;42208;6.376;-10.782;2022-08-20T09:25:00;24.75;;;10.55;;
56297;SDS011;42208;6.376;-10.782;2022-08-20T09:27:28;25.88;;;11.05;;
56297;SDS011;42208;6.376;-10.782;2022-08-20T09:29:57;21.52;;;11.77;;
56297;SDS011;42208;6.376;-10.782;2022-08-20T09:32:26;25.13;;;11.02;;
56297;SDS011;42208;6.376;-10.782;2022-08-20T09:34:54;32.15;;;11.13;;
56297;SDS011;42208;6.376;-10.782;2022-08-20T09:37:24;23.88;;;10.68;;
56297;SDS011;42208;6.376;-10.782;2022-08-20T09:39:57;34.00;;;11.60;;
56297;SDS011;42208;6.376;-10.782;2022-08-20T09:42:31;29.30;;;11.23;;
56297;SDS011;42208;6.376;-10.782;2022-08-20T09:45:07;32.83;;;12.50;;
56297;SDS011;42208;6.376;-10.782;2022-08-20T09:47:38;23.83;;;10.95;;
56297;SDS011;42208;6.376;-10.782;2022-08-20T09:50:22;23.33;;;11.20;;
56297;SDS011;42208;6.376;-10.782;2022-08-20T09:52:55;27.73;;;11.35;;
56297;SDS011;42208;6.376;-10.782;2022-08-20T09:55:32;43.20;;;24.60;;
56297;SDS011;42208;6.376;-10.782;2022-08-20T09:58:36;40.20;;;18.73;;
56297;SDS011;42208;6.376;-10.782;2022-08-20T10:00:55;34.08;;;18.05;;
56297;SDS011;42208;6.376;-10.782;2022-08-20T10:03:24;30.48;;;15.75;;
56297;SDS011;42208;6.376;-10.782;2022-08-20T10:05:52;21.90;;;10.50;;
56297;SDS011;42208;6.376;-10.782;2022-08-20T10:08:21;26.98;;;11.63;;
56297;SDS011;42208;6.376;-10.782;2022-08-20T10:10:49;20.92;;;10.73;;
56297;SDS011;42208;6.376;-10.782;2022-08-20T10:13:17;29.75;;;11.13;;
56297;SDS011;42208;6.376;-10.782;2022-08-20T10:15:46;28.58;;;10.80;;
56297;SDS011;42208;6.376;-10.782;2022-08-20T10:18:14;32.42;;;11.02;;
56297;SDS011;42208;6.376;-10.782;2022-08-20T10:20:42;25.08;;;11.27;;
56297;SDS011;42208;6.376;-10.782;2022-08-20T10:23:11;22.20;;;10.60;;
56297;SDS011;42208;6.376;-10.782;2022-08-20T10:25:40;28.50;;;10.93;;
56297;SDS011;42208;6.376;-10.782;2022-08-20T10:28:09;25.65;;;10.85;;
56297;SDS011;42208;6.376;-10.782;2022-08-20T10:30:37;27.38;;;10.68;;
56297;SDS011;42208;6.376;-10.782;2022-08-20T10:33:06;30.75;;;10.00;;
56297;SDS011;42208;6.376;-10.782;2022-08-20T10:35:34;27.10;;;11.20;;
56297;SDS011;42208;6.376;-10.782;2022-08-20T10:38:02;17.10;;;9.13;;
56297;SDS011;42208;6.376;-10.782;2022-08-20T10:40:31;17.75;;;9.73;;
56297;SDS011;42208;6.376;-10.782;2022-08-20T10:42:59;24.35;;;10.57;;
56297;SDS011;42208;6.376;-10.782;2022-08-20T10:45:27;24.33;;;10.95;;
56297;SDS011;42208;6.376;-10.782;2022-08-20T10:47:59;26.60;;;9.93;;
56297;SDS011;42208;6.376;-10.782;2022-08-20T10:50:28;24.50;;;10.18;;
56297;SDS011;42208;6.376;-10.782;2022-08-20T10:52:57;18.30;;;9.23;;
56297;SDS011;42208;6.376;-10.782;2022-08-20T10:55:25;25.80;;;9.77;;
56297;SDS011;42208;6.376;-10.782;2022-08-20T10:57:54;25.05;;;10.35;;
56297;SDS011;42208;6.376;-10.782;2022-08-20T11:00:23;23.55;;;11.25;;
56297;SDS011;42208;6.376;-10.782;2022-08-20T11:02:51;31.77;;;11.05;;
56297;SDS011;42208;6.376;-10.782;2022-08-20T11:05:19;27.55;;;10.55;;
56297;SDS011;42208;6.376;-10.782;2022-08-20T11:07:48;25.95;;;10.50;;
56297;SDS011;42208;6.376;-10.782;2022-08-20T11:10:34;23.58;;;11.48;;
56297;SDS011;42208;6.376;-10.782;2022-08-20T11:13:03;24.67;;;12.60;;
56297;SDS011;42208;6.376;-10.782;2022-08-20T11:15:35;24.10;;;11.90;;
56297;SDS011;42208;6.376;-10.782;2022-08-20T11:18:05;25.80;;;10.80;;
56297;SDS011;42208;6.376;-10.782;2022-08-20T11:20:34;28.80;;;11.27;;
56297;SDS011;42208;6.376;-10.782;2022-08-20T11:23:03;32.97;;;12.27;;
56297;SDS011;42208;6.376;-10.782;2022-08-20T11:25:31;22.50;;;10.02;;
56297;SDS011;42208;6.376;-10.782;2022-08-20T11:28:00;27.08;;;9.68;;
56297;SDS011;42208;6.376;-10.782;2022-08-20T11:30:32;26.60;;;11.52;;
56297;SDS011;42208;6.376;-10.782;2022-08-20T11:33:02;33.28;;;11.32;;
56297;SDS011;42208;6.376;-10.782;2022-08-20T11:35:31;27.77;;;11.80;;
56297;SDS011;42208;6.376;-10.782;2022-08-20T11:38:15;25.08;;;10.88;;
56297;SDS011;42208;6.376;-10.782;2022-08-20T11:40:44;32.72;;;11.00;;
56297;SDS011;42208;6.376;-10.782;2022-08-20T11:43:13;27.75;;;11.57;;
56297;SDS011;42208;6.376;-10.782;2022-08-20T11:45:47;40.75;;;12.50;;
56297;SDS011;42208;6.376;-10.782;2022-08-20T11:48:19;31.17;;;11.95;;
56297;SDS011;42208;6.376;-10.782;2022-08-20T11:50:48;22.13;;;11.88;;
56297;SDS011;42208;6.376;-10.782;2022-08-20T11:53:16;27.95;;;13.02;;
56297;SDS011;42208;6.376;-10.782;2022-08-20T11:55:45;24.25;;;12.20;;
56297;SDS011;42208;6.376;-10.782;2022-08-20T11:58:14;23.58;;;12.13;;
56297;SDS011;42208;6.376;-10.782;2022-08-20T12:00:43;25.38;;;10.73;;
56297;SDS011;42208;6.376;-10.782;2022-08-20T12:03:11;25.63;;;10.68;;
56297;SDS011;42208;6.376;-10.782;2022-08-20T12:05:40;23.70;;;12.05;;
56297;SDS011;42208;6.376;-10.782;2022-08-20T12:08:11;27.52;;;12.43;;
56297;SDS011;42208;6.376;-10.782;2022-08-20T12:10:56;32.03;;;12.70;;
56297;SDS011;42208;6.376;-10.782;2022-08-20T12:13:27;36.97;;;12.32;;
56297;SDS011;42208;6.376;-10.782;2022-08-20T12:16:13;33.88;;;13.23;;
56297;SDS011;42208;6.376;-10.782;2022-08-20T12:18:43;29.77;;;14.90;;
56297;SDS011;42208;6.376;-10.782;2022-08-20T12:21:12;30.73;;;13.05;;
56297;SDS011;42208;6.376;-10.782;2022-08-20T12:23:40;23.98;;;12.80;;
56297;SDS011;42208;6.376;-10.782;2022-08-20T12:26:09;25.67;;;10.40;;
56297;SDS011;42208;6.376;-10.782;2022-08-20T12:28:37;32.65;;;12.98;;
56297;SDS011;42208;6.376;-10.782;2022-08-20T12:31:06;25.75;;;13.00;;
56297;SDS011;42208;6.376;-10.782;2022-08-20T12:33:34;35.40;;;13.15;;
56297;SDS011;42208;6.376;-10.782;2022-08-20T12:36:02;34.97;;;19.85;;
56297;SDS011;42208;6.376;-10.782;2022-08-20T12:38:31;35.47;;;19.42;;
56297;SDS011;42208;6.376;-10.782;2022-08-20T12:41:00;30.05;;;14.93;;
56297;SDS011;42208;6.376;-10.782;2022-08-20T12:43:28;26.77;;;12.60;;
56297;SDS011;42208;6.376;-10.782;2022-08-20T12:45:56;21.20;;;10.00;;
56297;SDS011;42208;6.376;-10.782;2022-08-20T12:48:25;23.25;;;11.23;;
56297;SDS011;42208;6.376;-10.782;2022-08-20T12:50:53;25.77;;;11.15;;
56297;SDS011;42208;6.376;-10.782;2022-08-20T12:53:21;24.27;;;11.15;;
56297;SDS011;42208;6.376;-10.782;2022-08-20T12:55:50;22.80;;;11.65;;
56297;SDS011;42208;6.376;-10.782;2022-08-20T12:58:18;32.95;;;13.07;;
56297;SDS011;42208;6.376;-10.782;2022-08-20T13:00:47;27.00;;;12.65;;
56297;SDS011;42208;6.376;-10.782;2022-08-20T13:03:17;25.42;;;11.48;;
56297;SDS011;42208;6.376;-10.782;2022-08-20T13:05:48;27.45;;;10.75;;
56297;SDS011;42208;6.376;-10.782;2022-08-20T13:08:16;20.83;;;10.05;;
56297;SDS011;42208;6.376;-10.782;2022-08-20T13:10:45;26.42;;;11.45;;
56297;SDS011;42208;6.376;-10.782;2022-08-20T13:15:01;24.30;;;10.85;;
56297;SDS011;42208;6.376;-10.782;2022-08-20T13:17:30;26.38;;;11.70;;
56297;SDS011;42208;6.376;-10.782;2022-08-20T13:20:06;30.15;;;11.88;;
56297;SDS011;42208;6.376;-10.782;2022-08-20T13:22:36;25.00;;;10.93;;
56297;SDS011;42208;6.376;-10.782;2022-08-20T13:25:08;25.58;;;11.77;;
56297;SDS011;42208;6.376;-10.782;2022-08-20T13:27:41;28.75;;;12.27;;
56297;SDS011;42208;6.376;-10.782;2022-08-20T13:30:12;23.13;;;12.10;;
56297;SDS011;42208;6.376;-10.782;2022-08-20T13:32:43;23.88;;;12.82;;
56297;SDS011;42208;6.376;-10.782;2022-08-20T13:35:12;25.63;;;13.38;;
56297;SDS011;42208;6.376;-10.782;2022-08-20T13:37:41;30.58;;;14.57;;
56297;SDS011;42208;6.376;-10.782;2022-08-20T13:40:09;28.40;;;13.75;;
56297;SDS011;42208;6.376;-10.782;2022-08-20T13:42:39;28.85;;;14.23;;
56297;SDS011;42208;6.376;-10.782;2022-08-20T13:45:07;24.08;;;13.35;;
56297;SDS011;42208;6.376;-10.782;2022-08-20T13:47:36;22.95;;;14.25;;
56297;SDS011;42208;6.376;-10.782;2022-08-20T13:50:11;29.85;;;12.45;;
56297;SDS011;42208;6.376;-10.782;2022-08-20T13:52:39;36.97;;;16.23;;
56297;SDS011;42208;6.376;-10.782;2022-08-20T13:55:10;32.72;;;18.00;;
56297;SDS011;42208;6.376;-10.782;2022-08-20T13:57:40;29.83;;;18.25;;
56297;SDS011;42208;6.376;-10.782;2022-08-20T14:00:11;30.40;;;14.80;;
56297;SDS011;42208;6.376;-10.782;2022-08-20T14:02:42;25.35;;;11.80;;
56297;SDS011;42208;6.376;-10.782;2022-08-20T14:07:54;26.77;;;12.38;;
56297;SDS011;42208;6.376;-10.782;2022-08-20T14:10:24;26.83;;;14.57;;
56297;SDS011;42208;6.376;-10.782;2022-08-20T14:12:52;29.15;;;24.50;;
56297;SDS011;42208;6.376;-10.782;2022-08-20T14:15:21;21.67;;;12.15;;
56297;SDS011;42208;6.376;-10.782;2022-08-20T14:17:51;22.65;;;12.27;;
56297;SDS011;42208;6.376;-10.782;2022-08-20T14:20:23;28.67;;;15.48;;
56297;SDS011;42208;6.376;-10.782;2022-08-20T14:22:58;37.95;;;25.77;;
56297;SDS011;42208;6.376;-10.782;2022-08-20T14:25:29;32.33;;;14.32;;
56297;SDS011;42208;6.376;-10.782;2022-08-20T14:27:59;29.60;;;13.75;;
56297;SDS011;42208;6.376;-10.782;2022-08-20T14:30:44;31.38;;;15.88;;
56297;SDS011;42208;6.376;-10.782;2022-08-20T14:33:20;25.20;;;12.68;;
56297;SDS011;42208;6.376;-10.782;2022-08-20T14:35:50;24.63;;;12.90;;
56297;SDS011;42208;6.376;-10.782;2022-08-20T14:38:18;25.77;;;12.00;;
56297;SDS011;42208;6.376;-10.782;2022-08-20T14:40:47;21.33;;;11.13;;
56297;SDS011;42208;6.376;-10.782;2022-08-20T14:43:15;23.45;;;12.05;;
56297;SDS011;42208;6.376;-10.782;2022-08-20T14:45:44;31.15;;;13.10;;
56297;SDS011;42208;6.376;-10.782;2022-08-20T14:48:12;21.23;;;10.77;;
56297;SDS011;42208;6.376;-10.782;2022-08-20T14:50:41;26.20;;;10.82;;
56297;SDS011;42208;6.376;-10.782;2022-08-20T14:53:09;17.85;;;9.88;;
56297;SDS011;42208;6.376;-10.782;2022-08-20T14:55:37;20.45;;;10.68;;
56297;SDS011;42208;6.376;-10.782;2022-08-20T14:58:07;26.35;;;13.77;;
56297;SDS011;42208;6.376;-10.782;2022-08-20T15:00:36;32.40;;;16.60;;